sensor_id;sensor_type;location;lat;lon;timestamp;temperature;humidity
19138;DHT22;68178;52.188;5.598;2023-06-10T00:01:50;22.40;94.20
19138;DHT22;68178;52.188;5.598;2023-06-10T00:04:17;22.30;94.30
19138;DHT22;68178;52.188;5.598;2023-06-10T00:06:46;22.30;94.10
19138;DHT22;68178;52.188;5.598;2023-06-10T00:09:13;22.30;93.90
19138;DHT22;68178;52.188;5.598;2023-06-10T00:11:40;22.20;94.00
19138;DHT22;68178;52.188;5.598;2023-06-10T00:14:06;22.20;94.10
19138;DHT22;68178;52.188;5.598;2023-06-10T00:16:32;22.10;93.90
19138;DHT22;68178;52.188;5.598;2023-06-10T00:18:59;22.20;94.00
19138;DHT22;68178;52.188;5.598;2023-06-10T00:21:27;22.20;93.70
19138;DHT22;68178;52.188;5.598;2023-06-10T00:23:53;22.10;93.00
19138;DHT22;68178;52.188;5.598;2023-06-10T00:26:23;22.10;93.00
19138;DHT22;68178;52.188;5.598;2023-06-10T00:28:49;22.10;93.30
19138;DHT22;68178;52.188;5.598;2023-06-10T00:31:15;22.20;93.00
19138;DHT22;68178;52.188;5.598;2023-06-10T00:33:41;22.10;93.10
19138;DHT22;68178;52.188;5.598;2023-06-10T00:36:07;22.20;93.10
19138;DHT22;68178;52.188;5.598;2023-06-10T00:38:32;22.20;92.50
19138;DHT22;68178;52.188;5.598;2023-06-10T00:40:58;22.10;92.60
19138;DHT22;68178;52.188;5.598;2023-06-10T00:43:24;22.20;92.80
19138;DHT22;68178;52.188;5.598;2023-06-10T00:45:50;22.10;92.70
19138;DHT22;68178;52.188;5.598;2023-06-10T00:48:17;22.00;92.80
19138;DHT22;68178;52.188;5.598;2023-06-10T00:50:43;22.00;92.90
19138;DHT22;68178;52.188;5.598;2023-06-10T00:53:09;22.10;93.10
19138;DHT22;68178;52.188;5.598;2023-06-10T00:55:35;22.10;92.90
19138;DHT22;68178;52.188;5.598;2023-06-10T00:58:03;22.00;93.00
19138;DHT22;68178;52.188;5.598;2023-06-10T01:00:29;22.10;93.30
19138;DHT22;68178;52.188;5.598;2023-06-10T01:02:54;22.10;93.20
19138;DHT22;68178;52.188;5.598;2023-06-10T01:05:21;21.90;93.70
19138;DHT22;68178;52.188;5.598;2023-06-10T01:08:01;22.00;93.50
19138;DHT22;68178;52.188;5.598;2023-06-10T01:10:57;22.00;93.40
19138;DHT22;68178;52.188;5.598;2023-06-10T01:13:26;21.90;93.50
19138;DHT22;68178;52.188;5.598;2023-06-10T01:15:55;21.90;93.70
19138;DHT22;68178;52.188;5.598;2023-06-10T01:18:21;21.90;93.90
19138;DHT22;68178;52.188;5.598;2023-06-10T01:20:47;21.90;93.60
19138;DHT22;68178;52.188;5.598;2023-06-10T01:23:14;21.90;94.20
19138;DHT22;68178;52.188;5.598;2023-06-10T01:25:45;21.90;94.00
19138;DHT22;68178;52.188;5.598;2023-06-10T01:28:33;21.90;94.00
19138;DHT22;68178;52.188;5.598;2023-06-10T01:33:43;21.90;94.40
19138;DHT22;68178;52.188;5.598;2023-06-10T01:36:11;21.80;94.40
19138;DHT22;68178;52.188;5.598;2023-06-10T01:38:42;21.70;94.50
19138;DHT22;68178;52.188;5.598;2023-06-10T01:41:08;21.70;94.90
19138;DHT22;68178;52.188;5.598;2023-06-10T01:43:37;21.60;94.90
19138;DHT22;68178;52.188;5.598;2023-06-10T01:46:03;21.50;95.40
19138;DHT22;68178;52.188;5.598;2023-06-10T01:48:29;21.50;95.40
19138;DHT22;68178;52.188;5.598;2023-06-10T01:50:54;21.50;95.90
19138;DHT22;68178;52.188;5.598;2023-06-10T01:53:22;21.50;95.60
19138;DHT22;68178;52.188;5.598;2023-06-10T01:55:47;21.50;95.60
19138;DHT22;68178;52.188;5.598;2023-06-10T01:58:13;21.40;95.50
19138;DHT22;68178;52.188;5.598;2023-06-10T02:00:38;21.40;95.80
19138;DHT22;68178;52.188;5.598;2023-06-10T02:03:04;21.30;96.10
19138;DHT22;68178;52.188;5.598;2023-06-10T02:05:30;21.20;96.20
19138;DHT22;68178;52.188;5.598;2023-06-10T02:07:55;21.20;96.20
19138;DHT22;68178;52.188;5.598;2023-06-10T02:10:21;21.20;96.70
19138;DHT22;68178;52.188;5.598;2023-06-10T02:12:47;21.10;96.70
19138;DHT22;68178;52.188;5.598;2023-06-10T02:15:12;21.10;97.00
19138;DHT22;68178;52.188;5.598;2023-06-10T02:17:38;21.00;97.00
19138;DHT22;68178;52.188;5.598;2023-06-10T02:20:04;21.00;97.10
19138;DHT22;68178;52.188;5.598;2023-06-10T02:22:32;21.00;97.30
19138;DHT22;68178;52.188;5.598;2023-06-10T02:24:58;20.90;97.40
19138;DHT22;68178;52.188;5.598;2023-06-10T02:27:23;20.80;97.60
19138;DHT22;68178;52.188;5.598;2023-06-10T02:29:49;20.80;97.60
19138;DHT22;68178;52.188;5.598;2023-06-10T02:32:15;20.80;97.60
19138;DHT22;68178;52.188;5.598;2023-06-10T02:34:41;20.70;98.00
19138;DHT22;68178;52.188;5.598;2023-06-10T02:37:08;20.60;98.20
19138;DHT22;68178;52.188;5.598;2023-06-10T02:39:33;20.60;98.10
19138;DHT22;68178;52.188;5.598;2023-06-10T02:41:59;20.60;98.40
19138;DHT22;68178;52.188;5.598;2023-06-10T02:44:25;20.60;98.50
19138;DHT22;68178;52.188;5.598;2023-06-10T02:46:50;20.60;98.50
19138;DHT22;68178;52.188;5.598;2023-06-10T02:49:16;20.60;98.40
19138;DHT22;68178;52.188;5.598;2023-06-10T02:51:41;20.50;98.40
19138;DHT22;68178;52.188;5.598;2023-06-10T02:54:07;20.50;98.90
19138;DHT22;68178;52.188;5.598;2023-06-10T02:56:33;20.40;99.00
19138;DHT22;68178;52.188;5.598;2023-06-10T02:58:59;20.40;99.00
19138;DHT22;68178;52.188;5.598;2023-06-10T03:01:24;20.40;99.40
19138;DHT22;68178;52.188;5.598;2023-06-10T03:03:50;20.40;99.10
19138;DHT22;68178;52.188;5.598;2023-06-10T03:06:16;20.30;99.00
19138;DHT22;68178;52.188;5.598;2023-06-10T03:08:42;20.30;99.50
19138;DHT22;68178;52.188;5.598;2023-06-10T03:11:08;20.30;99.70
19138;DHT22;68178;52.188;5.598;2023-06-10T03:13:33;20.20;99.70
19138;DHT22;68178;52.188;5.598;2023-06-10T03:15:59;20.20;99.40
19138;DHT22;68178;52.188;5.598;2023-06-10T03:18:26;20.20;99.90
19138;DHT22;68178;52.188;5.598;2023-06-10T03:20:53;20.10;99.90
19138;DHT22;68178;52.188;5.598;2023-06-10T03:23:19;20.10;99.90
19138;DHT22;68178;52.188;5.598;2023-06-10T03:25:45;19.90;99.90
19138;DHT22;68178;52.188;5.598;2023-06-10T03:28:11;20.00;99.90
19138;DHT22;68178;52.188;5.598;2023-06-10T03:30:36;19.90;99.90
19138;DHT22;68178;52.188;5.598;2023-06-10T03:33:02;19.90;99.90
19138;DHT22;68178;52.188;5.598;2023-06-10T03:35:28;19.90;99.90
19138;DHT22;68178;52.188;5.598;2023-06-10T03:37:53;19.80;99.90
19138;DHT22;68178;52.188;5.598;2023-06-10T03:40:19;19.80;99.90
19138;DHT22;68178;52.188;5.598;2023-06-10T03:42:44;19.80;99.90
19138;DHT22;68178;52.188;5.598;2023-06-10T03:45:10;19.80;99.90
19138;DHT22;68178;52.188;5.598;2023-06-10T03:47:37;19.80;99.90
19138;DHT22;68178;52.188;5.598;2023-06-10T03:50:06;19.70;99.90
19138;DHT22;68178;52.188;5.598;2023-06-10T03:52:33;19.70;99.90
19138;DHT22;68178;52.188;5.598;2023-06-10T03:54:59;19.70;99.90
19138;DHT22;68178;52.188;5.598;2023-06-10T03:57:24;19.70;99.90
19138;DHT22;68178;52.188;5.598;2023-06-10T03:59:51;19.70;99.90
19138;DHT22;68178;52.188;5.598;2023-06-10T04:02:16;19.60;99.90
19138;DHT22;68178;52.188;5.598;2023-06-10T04:04:42;19.60;99.90
19138;DHT22;68178;52.188;5.598;2023-06-10T04:07:08;19.60;99.90
19138;DHT22;68178;52.188;5.598;2023-06-10T04:09:34;19.60;99.90
19138;DHT22;68178;52.188;5.598;2023-06-10T04:12:01;19.60;99.90
19138;DHT22;68178;52.188;5.598;2023-06-10T04:14:27;19.60;99.90
19138;DHT22;68178;52.188;5.598;2023-06-10T04:16:53;19.50;99.90
19138;DHT22;68178;52.188;5.598;2023-06-10T04:19:18;19.60;99.90
19138;DHT22;68178;52.188;5.598;2023-06-10T04:21:45;19.60;99.90
19138;DHT22;68178;52.188;5.598;2023-06-10T04:24:10;19.70;99.90
19138;DHT22;68178;52.188;5.598;2023-06-10T04:26:36;19.60;99.90
19138;DHT22;68178;52.188;5.598;2023-06-10T04:29:02;19.60;99.90
19138;DHT22;68178;52.188;5.598;2023-06-10T04:31:28;19.60;99.90
19138;DHT22;68178;52.188;5.598;2023-06-10T04:33:53;19.60;99.90
19138;DHT22;68178;52.188;5.598;2023-06-10T04:36:19;19.70;99.90
19138;DHT22;68178;52.188;5.598;2023-06-10T04:38:45;19.70;99.90
19138;DHT22;68178;52.188;5.598;2023-06-10T04:41:11;19.70;99.90
19138;DHT22;68178;52.188;5.598;2023-06-10T04:43:36;19.80;99.90
19138;DHT22;68178;52.188;5.598;2023-06-10T04:46:02;19.90;99.90
19138;DHT22;68178;52.188;5.598;2023-06-10T04:48:27;19.90;99.90
19138;DHT22;68178;52.188;5.598;2023-06-10T04:50:53;19.90;99.90
19138;DHT22;68178;52.188;5.598;2023-06-10T04:53:19;20.00;99.90
19138;DHT22;68178;52.188;5.598;2023-06-10T04:55:46;20.00;99.90
19138;DHT22;68178;52.188;5.598;2023-06-10T04:58:11;20.10;99.90
19138;DHT22;68178;52.188;5.598;2023-06-10T05:00:37;20.10;99.90
19138;DHT22;68178;52.188;5.598;2023-06-10T05:03:03;20.20;99.90
19138;DHT22;68178;52.188;5.598;2023-06-10T05:05:28;20.20;99.90
19138;DHT22;68178;52.188;5.598;2023-06-10T05:07:54;20.30;99.90
19138;DHT22;68178;52.188;5.598;2023-06-10T05:10:19;20.30;99.90
19138;DHT22;68178;52.188;5.598;2023-06-10T05:12:45;20.40;99.90
19138;DHT22;68178;52.188;5.598;2023-06-10T05:15:11;20.50;99.90
19138;DHT22;68178;52.188;5.598;2023-06-10T05:17:37;20.60;99.90
19138;DHT22;68178;52.188;5.598;2023-06-10T05:20:03;20.70;99.90
19138;DHT22;68178;52.188;5.598;2023-06-10T05:22:28;20.70;99.90
19138;DHT22;68178;52.188;5.598;2023-06-10T05:24:54;20.80;99.90
19138;DHT22;68178;52.188;5.598;2023-06-10T05:27:19;20.80;99.90
19138;DHT22;68178;52.188;5.598;2023-06-10T05:29:46;20.90;99.90
19138;DHT22;68178;52.188;5.598;2023-06-10T05:32:15;21.00;99.90
19138;DHT22;68178;52.188;5.598;2023-06-10T05:34:40;21.10;99.90
19138;DHT22;68178;52.188;5.598;2023-06-10T05:37:06;21.20;99.90
19138;DHT22;68178;52.188;5.598;2023-06-10T05:39:31;21.20;99.90
19138;DHT22;68178;52.188;5.598;2023-06-10T05:41:57;21.30;99.90
19138;DHT22;68178;52.188;5.598;2023-06-10T05:44:24;21.30;99.90
19138;DHT22;68178;52.188;5.598;2023-06-10T05:46:50;21.50;99.90
19138;DHT22;68178;52.188;5.598;2023-06-10T05:49:16;21.60;99.90
19138;DHT22;68178;52.188;5.598;2023-06-10T05:51:42;21.60;99.90
19138;DHT22;68178;52.188;5.598;2023-06-10T05:54:07;21.50;99.90
19138;DHT22;68178;52.188;5.598;2023-06-10T05:56:33;21.60;99.90
19138;DHT22;68178;52.188;5.598;2023-06-10T05:58:59;21.80;99.90
19138;DHT22;68178;52.188;5.598;2023-06-10T06:01:24;21.80;99.90
19138;DHT22;68178;52.188;5.598;2023-06-10T06:03:50;21.90;99.90
19138;DHT22;68178;52.188;5.598;2023-06-10T06:06:15;21.90;99.90
19138;DHT22;68178;52.188;5.598;2023-06-10T06:08:41;22.00;99.90
19138;DHT22;68178;52.188;5.598;2023-06-10T06:11:06;22.00;99.90
19138;DHT22;68178;52.188;5.598;2023-06-10T06:13:32;21.90;99.90
19138;DHT22;68178;52.188;5.598;2023-06-10T06:15:57;22.00;99.90
19138;DHT22;68178;52.188;5.598;2023-06-10T06:18:23;22.20;99.90
19138;DHT22;68178;52.188;5.598;2023-06-10T06:20:50;22.20;99.90
19138;DHT22;68178;52.188;5.598;2023-06-10T06:23:15;22.30;99.90
19138;DHT22;68178;52.188;5.598;2023-06-10T06:25:41;22.30;99.90
19138;DHT22;68178;52.188;5.598;2023-06-10T06:28:07;22.50;99.90
19138;DHT22;68178;52.188;5.598;2023-06-10T06:30:34;22.50;99.90
19138;DHT22;68178;52.188;5.598;2023-06-10T06:33:01;22.70;99.90
19138;DHT22;68178;52.188;5.598;2023-06-10T06:35:26;22.80;99.90
19138;DHT22;68178;52.188;5.598;2023-06-10T06:37:52;22.80;99.90
19138;DHT22;68178;52.188;5.598;2023-06-10T06:40:17;22.90;99.90
19138;DHT22;68178;52.188;5.598;2023-06-10T06:42:43;23.00;99.90
19138;DHT22;68178;52.188;5.598;2023-06-10T06:45:09;23.10;99.90
19138;DHT22;68178;52.188;5.598;2023-06-10T06:47:34;23.20;99.90
19138;DHT22;68178;52.188;5.598;2023-06-10T06:50:00;23.30;99.90
19138;DHT22;68178;52.188;5.598;2023-06-10T06:52:26;23.50;99.20
19138;DHT22;68178;52.188;5.598;2023-06-10T06:54:51;23.50;98.90
19138;DHT22;68178;52.188;5.598;2023-06-10T06:57:17;23.70;99.50
19138;DHT22;68178;52.188;5.598;2023-06-10T06:59:42;23.90;99.90
19138;DHT22;68178;52.188;5.598;2023-06-10T07:02:08;24.10;98.50
19138;DHT22;68178;52.188;5.598;2023-06-10T07:04:33;24.10;98.80
19138;DHT22;68178;52.188;5.598;2023-06-10T07:06:59;24.20;98.00
19138;DHT22;68178;52.188;5.598;2023-06-10T07:09:24;24.20;98.10
19138;DHT22;68178;52.188;5.598;2023-06-10T07:11:50;24.30;97.60
19138;DHT22;68178;52.188;5.598;2023-06-10T07:14:15;24.30;97.70
19138;DHT22;68178;52.188;5.598;2023-06-10T07:16:41;24.50;98.10
19138;DHT22;68178;52.188;5.598;2023-06-10T07:19:06;24.60;97.20
19138;DHT22;68178;52.188;5.598;2023-06-10T07:21:32;24.60;97.20
19138;DHT22;68178;52.188;5.598;2023-06-10T07:23:59;24.70;97.30
19138;DHT22;68178;52.188;5.598;2023-06-10T07:26:25;25.00;98.00
19138;DHT22;68178;52.188;5.598;2023-06-10T07:28:51;25.10;96.80
19138;DHT22;68178;52.188;5.598;2023-06-10T07:31:17;25.20;96.90
19138;DHT22;68178;52.188;5.598;2023-06-10T07:33:42;25.30;96.50
19138;DHT22;68178;52.188;5.598;2023-06-10T07:36:09;25.40;96.60
19138;DHT22;68178;52.188;5.598;2023-06-10T07:38:36;25.60;95.70
19138;DHT22;68178;52.188;5.598;2023-06-10T07:41:02;25.60;95.90
19138;DHT22;68178;52.188;5.598;2023-06-10T07:43:27;25.70;96.70
19138;DHT22;68178;52.188;5.598;2023-06-10T07:45:53;25.90;96.40
19138;DHT22;68178;52.188;5.598;2023-06-10T07:48:18;25.90;96.20
19138;DHT22;68178;52.188;5.598;2023-06-10T07:50:44;26.00;95.20
19138;DHT22;68178;52.188;5.598;2023-06-10T07:53:09;26.00;95.80
19138;DHT22;68178;52.188;5.598;2023-06-10T07:55:35;26.10;96.00
19138;DHT22;68178;52.188;5.598;2023-06-10T07:58:01;26.30;95.30
19138;DHT22;68178;52.188;5.598;2023-06-10T08:00:26;26.40;95.30
19138;DHT22;68178;52.188;5.598;2023-06-10T08:02:52;26.50;95.50
19138;DHT22;68178;52.188;5.598;2023-06-10T08:05:17;26.70;95.00
19138;DHT22;68178;52.188;5.598;2023-06-10T08:07:44;26.80;95.20
19138;DHT22;68178;52.188;5.598;2023-06-10T08:10:10;26.80;93.70
19138;DHT22;68178;52.188;5.598;2023-06-10T08:12:36;26.70;93.80
19138;DHT22;68178;52.188;5.598;2023-06-10T08:15:03;26.70;94.30
19138;DHT22;68178;52.188;5.598;2023-06-10T08:17:29;26.80;93.60
19138;DHT22;68178;52.188;5.598;2023-06-10T08:19:55;26.80;93.40
19138;DHT22;68178;52.188;5.598;2023-06-10T08:22:21;27.00;94.00
19138;DHT22;68178;52.188;5.598;2023-06-10T08:24:46;27.20;93.90
19138;DHT22;68178;52.188;5.598;2023-06-10T08:27:12;27.20;92.80
19138;DHT22;68178;52.188;5.598;2023-06-10T08:29:39;27.30;92.20
19138;DHT22;68178;52.188;5.598;2023-06-10T08:32:04;27.30;91.90
19138;DHT22;68178;52.188;5.598;2023-06-10T08:34:32;27.20;92.80
19138;DHT22;68178;52.188;5.598;2023-06-10T08:36:58;27.30;92.40
19138;DHT22;68178;52.188;5.598;2023-06-10T08:39:23;27.50;92.50
19138;DHT22;68178;52.188;5.598;2023-06-10T08:44:30;27.70;92.70
19138;DHT22;68178;52.188;5.598;2023-06-10T08:47:00;27.80;91.60
19138;DHT22;68178;52.188;5.598;2023-06-10T08:49:27;27.60;90.40
19138;DHT22;68178;52.188;5.598;2023-06-10T08:51:58;27.70;91.00
19138;DHT22;68178;52.188;5.598;2023-06-10T08:54:27;27.70;90.10
19138;DHT22;68178;52.188;5.598;2023-06-10T08:56:55;27.80;91.00
19138;DHT22;68178;52.188;5.598;2023-06-10T08:59:23;28.00;90.90
19138;DHT22;68178;52.188;5.598;2023-06-10T09:01:50;28.00;90.00
19138;DHT22;68178;52.188;5.598;2023-06-10T09:04:16;27.90;90.00
19138;DHT22;68178;52.188;5.598;2023-06-10T09:06:43;28.10;90.80
19138;DHT22;68178;52.188;5.598;2023-06-10T09:09:10;28.30;90.90
19138;DHT22;68178;52.188;5.598;2023-06-10T09:11:37;28.50;90.20
19138;DHT22;68178;52.188;5.598;2023-06-10T09:14:03;28.70;90.40
19138;DHT22;68178;52.188;5.598;2023-06-10T09:16:28;28.80;89.70
19138;DHT22;68178;52.188;5.598;2023-06-10T09:18:54;28.90;88.40
19138;DHT22;68178;52.188;5.598;2023-06-10T09:21:24;29.00;88.10
19138;DHT22;68178;52.188;5.598;2023-06-10T09:23:50;29.10;90.10
19138;DHT22;68178;52.188;5.598;2023-06-10T09:26:16;29.20;88.10
19138;DHT22;68178;52.188;5.598;2023-06-10T09:28:48;29.10;87.70
19138;DHT22;68178;52.188;5.598;2023-06-10T09:31:14;29.20;86.90
19138;DHT22;68178;52.188;5.598;2023-06-10T09:33:44;29.10;88.70
19138;DHT22;68178;52.188;5.598;2023-06-10T09:36:11;29.10;86.40
19138;DHT22;68178;52.188;5.598;2023-06-10T09:38:46;29.20;86.90
19138;DHT22;68178;52.188;5.598;2023-06-10T09:41:14;29.20;85.60
19138;DHT22;68178;52.188;5.598;2023-06-10T09:43:43;29.40;87.00
19138;DHT22;68178;52.188;5.598;2023-06-10T09:46:19;29.50;88.40
19138;DHT22;68178;52.188;5.598;2023-06-10T09:48:47;29.70;85.90
19138;DHT22;68178;52.188;5.598;2023-06-10T09:51:13;29.80;86.00
19138;DHT22;68178;52.188;5.598;2023-06-10T09:53:39;29.90;84.90
19138;DHT22;68178;52.188;5.598;2023-06-10T09:56:06;30.00;85.20
19138;DHT22;68178;52.188;5.598;2023-06-10T09:58:38;30.10;83.40
19138;DHT22;68178;52.188;5.598;2023-06-10T10:01:05;30.20;83.70
19138;DHT22;68178;52.188;5.598;2023-06-10T10:03:31;30.00;84.60
19138;DHT22;68178;52.188;5.598;2023-06-10T10:06:00;30.20;84.40
19138;DHT22;68178;52.188;5.598;2023-06-10T10:08:26;30.20;81.00
19138;DHT22;68178;52.188;5.598;2023-06-10T10:10:51;30.30;78.40
19138;DHT22;68178;52.188;5.598;2023-06-10T10:13:18;30.20;79.60
19138;DHT22;68178;52.188;5.598;2023-06-10T10:15:45;30.40;80.10
19138;DHT22;68178;52.188;5.598;2023-06-10T10:18:14;30.40;78.00
19138;DHT22;68178;52.188;5.598;2023-06-10T10:20:47;30.50;78.50
19138;DHT22;68178;52.188;5.598;2023-06-10T10:23:20;30.70;78.70
19138;DHT22;68178;52.188;5.598;2023-06-10T10:25:51;30.60;78.00
19138;DHT22;68178;52.188;5.598;2023-06-10T10:28:20;30.70;79.30
19138;DHT22;68178;52.188;5.598;2023-06-10T10:30:49;30.90;78.20
19138;DHT22;68178;52.188;5.598;2023-06-10T10:33:36;31.00;77.30
19138;DHT22;68178;52.188;5.598;2023-06-10T10:36:06;31.10;78.00
19138;DHT22;68178;52.188;5.598;2023-06-10T10:38:33;31.10;75.60
19138;DHT22;68178;52.188;5.598;2023-06-10T10:41:00;31.00;77.50
19138;DHT22;68178;52.188;5.598;2023-06-10T10:43:27;31.00;75.30
19138;DHT22;68178;52.188;5.598;2023-06-10T10:46:01;31.20;76.40
19138;DHT22;68178;52.188;5.598;2023-06-10T10:48:27;31.30;75.90
19138;DHT22;68178;52.188;5.598;2023-06-10T10:50:58;31.40;73.30
19138;DHT22;68178;52.188;5.598;2023-06-10T10:53:24;31.50;72.90
19138;DHT22;68178;52.188;5.598;2023-06-10T10:58:30;31.50;74.30
19138;DHT22;68178;52.188;5.598;2023-06-10T11:00:57;31.60;69.80
19138;DHT22;68178;52.188;5.598;2023-06-10T11:03:28;31.50;70.50
19138;DHT22;68178;52.188;5.598;2023-06-10T11:05:57;31.50;70.90
19138;DHT22;68178;52.188;5.598;2023-06-10T11:10:58;31.80;73.80
19138;DHT22;68178;52.188;5.598;2023-06-10T11:13:26;32.00;73.50
19138;DHT22;68178;52.188;5.598;2023-06-10T11:15:52;32.10;70.00
19138;DHT22;68178;52.188;5.598;2023-06-10T11:18:38;32.10;70.80
19138;DHT22;68178;52.188;5.598;2023-06-10T11:21:05;32.40;71.80
19138;DHT22;68178;52.188;5.598;2023-06-10T11:23:33;32.50;71.20
19138;DHT22;68178;52.188;5.598;2023-06-10T11:31:24;32.50;68.70
19138;DHT22;68178;52.188;5.598;2023-06-10T11:34:01;32.60;70.60
19138;DHT22;68178;52.188;5.598;2023-06-10T11:36:28;32.90;69.10
19138;DHT22;68178;52.188;5.598;2023-06-10T11:39:04;32.90;67.60
19138;DHT22;68178;52.188;5.598;2023-06-10T11:41:31;33.10;68.60
19138;DHT22;68178;52.188;5.598;2023-06-10T11:44:04;33.10;66.60
19138;DHT22;68178;52.188;5.598;2023-06-10T11:46:32;33.10;64.60
19138;DHT22;68178;52.188;5.598;2023-06-10T11:48:59;33.10;63.60
19138;DHT22;68178;52.188;5.598;2023-06-10T11:51:27;33.00;65.00
19138;DHT22;68178;52.188;5.598;2023-06-10T11:53:53;33.00;65.30
19138;DHT22;68178;52.188;5.598;2023-06-10T11:56:30;33.00;65.50
19138;DHT22;68178;52.188;5.598;2023-06-10T12:01:23;33.10;64.60
19138;DHT22;68178;52.188;5.598;2023-06-10T12:04:04;33.20;64.80
19138;DHT22;68178;52.188;5.598;2023-06-10T12:06:52;33.30;65.00
19138;DHT22;68178;52.188;5.598;2023-06-10T12:09:27;33.40;66.10
19138;DHT22;68178;52.188;5.598;2023-06-10T12:12:02;33.20;65.10
19138;DHT22;68178;52.188;5.598;2023-06-10T12:14:54;33.30;64.40
19138;DHT22;68178;52.188;5.598;2023-06-10T12:17:21;33.10;63.90
19138;DHT22;68178;52.188;5.598;2023-06-10T12:19:47;33.10;66.80
19138;DHT22;68178;52.188;5.598;2023-06-10T12:22:13;33.50;65.10
19138;DHT22;68178;52.188;5.598;2023-06-10T12:24:56;33.60;65.60
19138;DHT22;68178;52.188;5.598;2023-06-10T12:27:24;33.60;64.40
19138;DHT22;68178;52.188;5.598;2023-06-10T12:29:53;33.70;65.10
19138;DHT22;68178;52.188;5.598;2023-06-10T12:32:41;33.60;63.60
19138;DHT22;68178;52.188;5.598;2023-06-10T12:35:07;33.70;64.90
19138;DHT22;68178;52.188;5.598;2023-06-10T12:37:33;33.60;63.90
19138;DHT22;68178;52.188;5.598;2023-06-10T12:40:01;33.60;62.10
19138;DHT22;68178;52.188;5.598;2023-06-10T12:42:28;33.60;63.50
19138;DHT22;68178;52.188;5.598;2023-06-10T12:44:55;33.60;64.90
19138;DHT22;68178;52.188;5.598;2023-06-10T12:47:36;33.70;62.00
19138;DHT22;68178;52.188;5.598;2023-06-10T12:50:04;33.70;63.50
19138;DHT22;68178;52.188;5.598;2023-06-10T12:52:30;33.80;62.10
19138;DHT22;68178;52.188;5.598;2023-06-10T12:54:56;33.60;62.80
19138;DHT22;68178;52.188;5.598;2023-06-10T12:57:22;33.50;61.50
19138;DHT22;68178;52.188;5.598;2023-06-10T12:59:48;33.50;61.50
19138;DHT22;68178;52.188;5.598;2023-06-10T13:02:21;33.70;60.90
19138;DHT22;68178;52.188;5.598;2023-06-10T13:04:50;33.80;62.80
19138;DHT22;68178;52.188;5.598;2023-06-10T13:07:16;34.10;62.10
19138;DHT22;68178;52.188;5.598;2023-06-10T13:09:42;34.30;61.00
19138;DHT22;68178;52.188;5.598;2023-06-10T13:12:08;34.30;60.70
19138;DHT22;68178;52.188;5.598;2023-06-10T13:14:34;34.30;60.50
19138;DHT22;68178;52.188;5.598;2023-06-10T13:17:00;34.10;60.90
19138;DHT22;68178;52.188;5.598;2023-06-10T13:19:25;34.20;61.40
19138;DHT22;68178;52.188;5.598;2023-06-10T13:21:51;34.10;60.60
19138;DHT22;68178;52.188;5.598;2023-06-10T13:24:17;34.00;60.00
19138;DHT22;68178;52.188;5.598;2023-06-10T13:26:43;34.10;62.10
19138;DHT22;68178;52.188;5.598;2023-06-10T13:29:09;34.20;59.30
19138;DHT22;68178;52.188;5.598;2023-06-10T13:31:39;34.20;63.80
19138;DHT22;68178;52.188;5.598;2023-06-10T13:34:05;34.40;62.00
19138;DHT22;68178;52.188;5.598;2023-06-10T13:36:31;34.60;63.00
19138;DHT22;68178;52.188;5.598;2023-06-10T13:38:57;34.70;63.10
19138;DHT22;68178;52.188;5.598;2023-06-10T13:41:22;34.80;59.20
19138;DHT22;68178;52.188;5.598;2023-06-10T13:43:48;34.50;59.60
19138;DHT22;68178;52.188;5.598;2023-06-10T13:46:14;34.40;61.00
19138;DHT22;68178;52.188;5.598;2023-06-10T13:48:39;34.40;60.90
19138;DHT22;68178;52.188;5.598;2023-06-10T13:51:05;34.40;60.80
19138;DHT22;68178;52.188;5.598;2023-06-10T13:53:31;34.40;62.50
19138;DHT22;68178;52.188;5.598;2023-06-10T13:55:57;34.20;63.00
19138;DHT22;68178;52.188;5.598;2023-06-10T13:58:23;34.40;63.40
19138;DHT22;68178;52.188;5.598;2023-06-10T14:00:48;34.50;62.30
19138;DHT22;68178;52.188;5.598;2023-06-10T14:03:14;34.10;60.90
19138;DHT22;68178;52.188;5.598;2023-06-10T14:05:39;34.20;59.60
19138;DHT22;68178;52.188;5.598;2023-06-10T14:08:05;34.20;60.80
19138;DHT22;68178;52.188;5.598;2023-06-10T14:10:30;34.20;63.40
19138;DHT22;68178;52.188;5.598;2023-06-10T14:12:56;34.30;61.30
19138;DHT22;68178;52.188;5.598;2023-06-10T14:15:22;34.30;61.20
19138;DHT22;68178;52.188;5.598;2023-06-10T14:17:47;34.40;61.30
19138;DHT22;68178;52.188;5.598;2023-06-10T14:20:13;34.60;62.60
19138;DHT22;68178;52.188;5.598;2023-06-10T14:22:38;34.40;59.50
19138;DHT22;68178;52.188;5.598;2023-06-10T14:25:04;34.30;60.30
19138;DHT22;68178;52.188;5.598;2023-06-10T14:27:30;34.30;60.60
19138;DHT22;68178;52.188;5.598;2023-06-10T14:29:55;34.30;58.90
19138;DHT22;68178;52.188;5.598;2023-06-10T14:32:21;34.30;58.40
19138;DHT22;68178;52.188;5.598;2023-06-10T14:34:46;34.10;59.90
19138;DHT22;68178;52.188;5.598;2023-06-10T14:37:12;34.10;59.40
19138;DHT22;68178;52.188;5.598;2023-06-10T14:39:38;34.00;58.90
19138;DHT22;68178;52.188;5.598;2023-06-10T14:42:03;33.60;59.30
19138;DHT22;68178;52.188;5.598;2023-06-10T14:44:29;33.60;59.60
19138;DHT22;68178;52.188;5.598;2023-06-10T14:46:55;33.50;60.60
19138;DHT22;68178;52.188;5.598;2023-06-10T14:49:20;33.40;59.30
19138;DHT22;68178;52.188;5.598;2023-06-10T14:51:46;33.30;60.60
19138;DHT22;68178;52.188;5.598;2023-06-10T14:54:13;33.20;60.40
19138;DHT22;68178;52.188;5.598;2023-06-10T14:56:38;32.90;59.10
19138;DHT22;68178;52.188;5.598;2023-06-10T14:59:04;32.50;60.30
19138;DHT22;68178;52.188;5.598;2023-06-10T15:01:30;32.50;60.30
19138;DHT22;68178;52.188;5.598;2023-06-10T15:03:55;32.30;60.70
19138;DHT22;68178;52.188;5.598;2023-06-10T15:06:21;32.30;61.70
19138;DHT22;68178;52.188;5.598;2023-06-10T15:08:48;32.40;61.30
19138;DHT22;68178;52.188;5.598;2023-06-10T15:11:17;32.40;62.20
19138;DHT22;68178;52.188;5.598;2023-06-10T15:13:42;32.30;62.00
19138;DHT22;68178;52.188;5.598;2023-06-10T15:16:08;32.40;63.60
19138;DHT22;68178;52.188;5.598;2023-06-10T15:18:34;32.40;60.20
19138;DHT22;68178;52.188;5.598;2023-06-10T15:20:59;32.30;62.10
19138;DHT22;68178;52.188;5.598;2023-06-10T15:23:25;32.30;59.40
19138;DHT22;68178;52.188;5.598;2023-06-10T15:25:51;32.10;61.20
19138;DHT22;68178;52.188;5.598;2023-06-10T15:28:16;32.10;60.20
19138;DHT22;68178;52.188;5.598;2023-06-10T15:30:42;32.10;61.80
19138;DHT22;68178;52.188;5.598;2023-06-10T15:33:07;32.10;60.10
19138;DHT22;68178;52.188;5.598;2023-06-10T15:35:33;32.00;60.70
19138;DHT22;68178;52.188;5.598;2023-06-10T15:37:59;31.90;62.00
19138;DHT22;68178;52.188;5.598;2023-06-10T15:40:24;31.70;62.30
19138;DHT22;68178;52.188;5.598;2023-06-10T15:42:51;31.70;62.80
19138;DHT22;68178;52.188;5.598;2023-06-10T15:45:16;31.60;63.30
19138;DHT22;68178;52.188;5.598;2023-06-10T15:47:42;31.50;62.90